createdAt,value
2018-06-03T00:01:06.602Z,39.50
2018-06-03T00:03:34.038Z,40.60
2018-06-03T00:06:01.434Z,41.20
2018-06-03T00:08:28.886Z,40.70
2018-06-03T00:10:56.276Z,40.83
2018-06-03T00:13:23.807Z,39.40
2018-06-03T00:15:51.173Z,40.07
2018-06-03T00:18:18.579Z,42.40
2018-06-03T00:20:51.919Z,44.37
2018-06-03T00:23:19.349Z,42.30
2018-06-03T00:25:46.716Z,40.93
2018-06-03T00:28:14.103Z,41.50
2018-06-03T00:30:41.520Z,41.40
2018-06-03T00:33:09.022Z,42.00
2018-06-03T00:35:42.418Z,41.90
2018-06-03T00:38:09.775Z,41.90
2018-06-03T00:40:37.159Z,43.50
2018-06-03T00:43:04.654Z,42.40
2018-06-03T00:45:32.071Z,43.97
2018-06-03T00:47:59.499Z,41.67
2018-06-03T00:50:27.057Z,43.00
2018-06-03T00:52:54.482Z,42.30
2018-06-03T00:55:21.925Z,43.97
2018-06-03T00:57:49.293Z,43.40
2018-06-03T01:00:16.726Z,40.83
2018-06-03T01:02:44.161Z,41.67
2018-06-03T01:05:11.588Z,41.47
2018-06-03T01:07:38.956Z,44.67
2018-06-03T01:10:06.824Z,42.47
2018-06-03T01:12:34.228Z,42.57
2018-06-03T01:15:01.590Z,43.30
2018-06-03T01:17:28.980Z,42.93
2018-06-03T01:19:56.371Z,43.17
2018-06-03T01:22:23.756Z,43.00
2018-06-03T01:24:51.112Z,43.10
2018-06-03T01:27:18.577Z,44.27
2018-06-03T01:29:45.939Z,42.10
2018-06-03T01:32:13.292Z,42.73
2018-06-03T01:34:40.746Z,42.07
2018-06-03T01:37:08.132Z,43.60
2018-06-03T01:39:35.508Z,43.60
2018-06-03T01:42:02.916Z,45.03
2018-06-03T01:44:30.299Z,45.63
2018-06-03T01:46:58.057Z,44.50
2018-06-03T01:49:25.472Z,44.43
2018-06-03T01:51:52.845Z,44.80
2018-06-03T01:54:20.396Z,42.97
2018-06-03T01:56:47.884Z,43.87
2018-06-03T01:59:15.289Z,44.50
2018-06-03T02:01:42.679Z,43.13
2018-06-03T02:04:10.671Z,44.70
2018-06-03T02:06:38.117Z,45.07
2018-06-03T02:09:05.516Z,45.20
2018-06-03T02:11:32.901Z,44.80
2018-06-03T02:14:00.300Z,44.00
2018-06-03T02:16:27.689Z,44.50
2018-06-03T02:18:55.113Z,44.27
2018-06-03T02:21:22.562Z,43.57
2018-06-03T02:23:49.954Z,42.90
2018-06-03T02:29:02.356Z,41.30
2018-06-03T02:31:29.855Z,43.90
2018-06-03T02:33:57.222Z,42.10
2018-06-03T02:36:24.621Z,43.80
2018-06-03T02:38:52.025Z,44.10
2018-06-03T02:41:19.458Z,44.43
2018-06-03T02:43:46.851Z,44.63
2018-06-03T02:46:14.260Z,43.73
2018-06-03T02:48:41.689Z,42.97
2018-06-03T02:51:09.114Z,44.00
2018-06-03T02:53:36.496Z,43.00
2018-06-03T02:56:03.863Z,45.20
2018-06-03T02:58:31.283Z,43.90
2018-06-03T03:00:58.682Z,44.87
2018-06-03T03:03:26.951Z,42.43
2018-06-03T03:05:54.384Z,43.83
2018-06-03T03:08:21.817Z,43.40
2018-06-03T03:10:49.225Z,42.60
2018-06-03T03:13:16.749Z,42.77
2018-06-03T03:15:44.157Z,41.97
2018-06-03T03:18:11.560Z,44.60
2018-06-03T03:20:38.953Z,43.20
2018-06-03T03:23:06.373Z,43.23
2018-06-03T03:26:11.111Z,45.80
2018-06-03T03:28:39.172Z,43.63
2018-06-03T03:31:07.341Z,44.00
2018-06-03T03:33:35.344Z,42.53
2018-06-03T03:36:03.414Z,43.50
2018-06-03T03:38:31.471Z,41.07
2018-06-03T03:40:59.532Z,38.97
2018-06-03T03:43:27.534Z,42.33
2018-06-03T03:45:55.539Z,41.33
2018-06-03T03:48:23.669Z,40.80
2018-06-03T03:50:51.704Z,41.67
2018-06-03T03:53:19.712Z,41.50
2018-06-03T03:55:47.817Z,42.13
2018-06-03T03:58:15.811Z,40.00
2018-06-03T04:00:43.925Z,40.27
2018-06-03T04:03:12.065Z,39.67
2018-06-03T04:05:40.104Z,40.60
2018-06-03T04:08:08.191Z,40.70
2018-06-03T04:10:36.211Z,39.27
2018-06-03T04:13:04.282Z,40.57
2018-06-03T04:15:32.323Z,39.07
2018-06-03T04:18:00.332Z,40.07
2018-06-03T04:20:28.311Z,38.40
2018-06-03T04:22:56.407Z,38.80
2018-06-03T04:25:24.478Z,37.50
2018-06-03T04:27:52.505Z,37.87
2018-06-03T04:30:20.632Z,36.33
2018-06-03T04:32:48.668Z,41.07
2018-06-03T04:35:16.740Z,39.47
2018-06-03T04:37:44.721Z,40.80
2018-06-03T04:40:12.860Z,38.70
2018-06-03T04:42:41.011Z,38.07
2018-06-03T04:45:09.077Z,38.40
2018-06-03T04:47:37.096Z,37.57
2018-06-03T04:50:05.218Z,34.70
2018-06-03T04:52:33.308Z,35.03
2018-06-03T04:55:01.355Z,37.23
2018-06-03T04:57:29.384Z,35.50
2018-06-03T04:59:57.449Z,36.07
2018-06-03T05:02:25.577Z,34.60
2018-06-03T05:04:53.597Z,35.33
2018-06-03T05:07:21.653Z,36.40
2018-06-03T05:09:49.722Z,38.60
2018-06-03T05:12:17.774Z,34.93
2018-06-03T05:14:45.797Z,36.10
2018-06-03T05:17:13.817Z,36.20
2018-06-03T05:19:41.974Z,34.80
2018-06-03T05:22:10.047Z,36.50
2018-06-03T05:24:38.126Z,36.70
2018-06-03T05:27:06.220Z,34.53
2018-06-03T05:29:34.272Z,34.83
2018-06-03T05:32:02.365Z,35.53
2018-06-03T05:34:30.536Z,35.50
2018-06-03T05:36:58.593Z,36.83
2018-06-03T05:39:26.599Z,37.80
2018-06-03T05:41:54.712Z,37.97
2018-06-03T05:44:22.768Z,36.73
2018-06-03T05:46:50.785Z,38.07
2018-06-03T05:49:18.851Z,38.40
2018-06-03T05:51:46.897Z,38.07
2018-06-03T05:54:14.898Z,37.90
2018-06-03T05:56:42.918Z,36.50
2018-06-03T05:59:10.983Z,37.20
2018-06-03T06:01:39.079Z,36.67
2018-06-03T06:04:07.145Z,38.30
2018-06-03T06:06:35.194Z,38.20
2018-06-03T06:09:03.423Z,36.60
2018-06-03T06:11:31.489Z,36.80
2018-06-03T06:13:59.647Z,37.17
2018-06-03T06:16:27.756Z,37.90
2018-06-03T06:18:55.857Z,38.40
2018-06-03T06:21:24.045Z,37.70
2018-06-03T06:23:52.080Z,38.33
2018-06-03T06:26:20.096Z,37.00
2018-06-03T06:28:48.318Z,39.07
2018-06-03T06:31:16.365Z,37.37
2018-06-03T06:33:44.432Z,36.57
2018-06-03T06:36:12.484Z,38.77
2018-06-03T06:38:40.479Z,38.07
2018-06-03T06:41:08.498Z,39.17
2018-06-03T06:43:36.552Z,38.97
2018-06-03T06:46:04.796Z,38.13
2018-06-03T06:48:32.840Z,39.33
2018-06-03T06:51:00.875Z,41.40
2018-06-03T06:53:28.904Z,41.23
2018-06-03T06:55:56.975Z,39.10
2018-06-03T06:58:25.043Z,39.67
2018-06-03T07:00:53.022Z,39.10
2018-06-03T07:03:21.085Z,38.60
2018-06-03T07:05:49.148Z,39.77
2018-06-03T07:08:17.240Z,38.20
2018-06-03T07:10:45.303Z,39.60
2018-06-03T07:13:13.436Z,39.77
2018-06-03T07:15:41.545Z,41.40
2018-06-03T07:18:09.617Z,39.90
2018-06-03T07:20:37.678Z,39.37
2018-06-03T07:23:05.635Z,39.90
2018-06-03T07:25:33.708Z,38.80
2018-06-03T07:28:01.700Z,39.67
2018-06-03T07:30:29.877Z,38.50
2018-06-03T07:32:57.832Z,41.13
2018-06-03T07:35:26.546Z,38.83
2018-06-03T07:37:54.732Z,39.33
2018-06-03T07:40:22.708Z,39.83
2018-06-03T07:42:50.810Z,36.93
2018-06-03T07:45:18.847Z,39.90
2018-06-03T07:47:46.839Z,40.03
2018-06-03T07:50:15.165Z,38.73
2018-06-03T07:52:43.254Z,39.90
2018-06-03T07:55:11.305Z,40.23
2018-06-03T07:57:39.342Z,41.10
2018-06-03T08:00:07.381Z,40.63
2018-06-03T08:02:35.452Z,40.10
2018-06-03T08:05:03.584Z,39.80
2018-06-03T08:07:31.704Z,39.57
2018-06-03T08:09:59.775Z,40.53
2018-06-03T08:12:27.821Z,39.70
2018-06-03T08:14:55.861Z,39.80
2018-06-03T08:17:23.967Z,39.97
2018-06-03T08:19:52.017Z,38.93
2018-06-03T08:22:20.063Z,39.00
2018-06-03T08:24:48.057Z,40.53
2018-06-03T08:27:16.084Z,40.03
2018-06-03T08:29:44.079Z,40.10
2018-06-03T08:32:12.144Z,39.27
2018-06-03T08:34:40.204Z,38.73
2018-06-03T08:37:08.281Z,37.87
2018-06-03T08:39:36.301Z,37.73
2018-06-03T08:42:04.311Z,36.53
2018-06-03T08:44:32.357Z,38.60
2018-06-03T08:47:00.377Z,38.77
2018-06-03T08:49:28.416Z,37.83
2018-06-03T08:51:56.462Z,35.93
2018-06-03T08:54:24.508Z,36.57
2018-06-03T08:56:52.508Z,36.70
2018-06-03T08:59:20.536Z,36.50
2018-06-03T09:01:48.562Z,33.30
2018-06-03T09:04:16.608Z,33.77
2018-06-03T09:06:44.607Z,31.00
2018-06-03T09:09:12.755Z,31.70
2018-06-03T09:11:40.745Z,30.90
2018-06-03T09:14:08.793Z,30.97
2018-06-03T09:16:36.785Z,34.07
2018-06-03T09:19:04.896Z,31.07
2018-06-03T09:21:32.922Z,33.00
2018-06-03T09:24:00.888Z,33.17
2018-06-03T09:26:28.915Z,31.10
2018-06-03T09:28:56.944Z,31.97
2018-06-03T09:31:25.025Z,32.60
2018-06-03T09:33:53.130Z,33.53
2018-06-03T09:36:21.143Z,35.00
2018-06-03T09:38:49.211Z,34.27
2018-06-03T09:41:17.551Z,33.50
2018-06-03T09:43:45.581Z,33.27
2018-06-03T09:46:13.645Z,31.93
2018-06-03T09:48:41.604Z,30.53
2018-06-03T09:51:09.609Z,32.97
2018-06-03T09:53:37.732Z,31.83
2018-06-03T09:56:05.756Z,34.93
2018-06-03T09:58:33.829Z,34.20
2018-06-03T10:01:01.824Z,32.70
2018-06-03T10:03:29.955Z,34.80
2018-06-03T10:05:58.019Z,35.20
2018-06-03T10:08:26.033Z,37.10
2018-06-03T10:10:54.064Z,36.97
2018-06-03T10:13:22.025Z,36.77
2018-06-03T10:15:50.218Z,35.13
2018-06-03T10:18:18.289Z,38.93
2018-06-03T10:20:46.379Z,36.00
2018-06-03T10:23:14.413Z,36.33
2018-06-03T10:25:42.444Z,37.67
2018-06-03T10:28:10.536Z,38.40
2018-06-03T10:30:38.576Z,36.57
2018-06-03T10:33:07.426Z,36.07
2018-06-03T10:35:35.509Z,35.17
2018-06-03T10:38:03.604Z,34.50
2018-06-03T10:40:31.637Z,34.73
2018-06-03T10:42:59.884Z,35.40
2018-06-03T10:45:27.874Z,33.10
2018-06-03T10:47:55.912Z,30.00
2018-06-03T10:50:23.965Z,30.37
2018-06-03T10:52:52.027Z,30.00
2018-06-03T10:55:20.101Z,30.33
2018-06-03T10:57:48.309Z,30.43
2018-06-03T11:00:16.387Z,31.17
2018-06-03T11:02:44.466Z,31.20
2018-06-03T11:05:12.452Z,32.60
2018-06-03T11:07:40.508Z,32.10
2018-06-03T11:10:08.506Z,31.03
2018-06-03T11:12:36.609Z,31.10
2018-06-03T11:15:04.775Z,30.17
2018-06-03T11:17:32.813Z,30.63
2018-06-03T11:20:00.871Z,30.60
2018-06-03T11:22:28.904Z,29.60
2018-06-03T11:24:57.056Z,30.57
2018-06-03T11:27:25.064Z,32.43
2018-06-03T11:29:53.102Z,31.63
2018-06-03T11:32:21.283Z,32.37
2018-06-03T11:34:49.301Z,31.37
2018-06-03T11:37:17.366Z,32.83
2018-06-03T11:39:45.432Z,33.07
2018-06-03T11:42:13.485Z,33.10
2018-06-03T11:44:41.501Z,32.87
2018-06-03T11:47:09.500Z,31.43
2018-06-03T11:49:37.585Z,32.77
2018-06-03T11:52:05.683Z,34.00
2018-06-03T11:54:33.731Z,29.07
2018-06-03T11:57:02.408Z,29.50
2018-06-03T11:59:46.364Z,34.37
2018-06-03T12:02:15.959Z,29.13
2018-06-03T12:04:44.070Z,27.00
2018-06-03T12:07:12.100Z,29.27
2018-06-03T12:09:40.156Z,29.50
2018-06-03T12:12:08.207Z,27.80
2018-06-03T12:14:36.785Z,27.80
2018-06-03T12:17:04.779Z,26.87
2018-06-03T12:19:32.785Z,24.93
2018-06-03T12:22:00.771Z,27.67
2018-06-03T12:24:28.808Z,27.60
2018-06-03T12:26:56.788Z,24.60
2018-06-03T12:29:24.824Z,24.77
2018-06-03T12:31:52.889Z,25.27
2018-06-03T12:34:20.962Z,20.07
2018-06-03T12:36:48.977Z,18.40
2018-06-03T12:39:17.036Z,18.70
2018-06-03T12:41:45.067Z,17.60
2018-06-03T12:44:13.102Z,16.10
2018-06-03T12:46:41.127Z,16.10
2018-06-03T12:49:09.119Z,15.87
2018-06-03T12:51:37.216Z,15.27
2018-06-03T12:54:05.265Z,14.80
2018-06-03T12:56:33.324Z,14.30
2018-06-03T12:59:01.393Z,13.60
2018-06-03T13:01:29.457Z,13.90
2018-06-03T13:03:57.447Z,13.00
2018-06-03T13:06:25.511Z,12.40
2018-06-03T13:08:53.625Z,11.77
2018-06-03T13:11:21.675Z,11.40
2018-06-03T13:13:49.735Z,11.13
2018-06-03T13:16:17.757Z,11.90
2018-06-03T13:18:45.816Z,12.00
2018-06-03T13:21:13.883Z,11.53
2018-06-03T13:23:42.096Z,10.23
2018-06-03T13:26:10.190Z,10.50
2018-06-03T13:28:38.259Z,11.13
2018-06-03T13:31:06.327Z,9.73
2018-06-03T13:33:34.449Z,9.30
2018-06-03T13:36:02.563Z,10.43
2018-06-03T13:38:30.580Z,8.10
2018-06-03T13:40:58.660Z,7.70
2018-06-03T13:43:26.681Z,8.10
2018-06-03T13:45:54.734Z,7.80
2018-06-03T13:48:22.726Z,7.67
2018-06-03T13:50:50.801Z,8.33
2018-06-03T13:53:18.829Z,6.70
2018-06-03T13:55:46.872Z,7.53
2018-06-03T13:58:14.974Z,8.23
2018-06-03T14:00:43.012Z,7.80
2018-06-03T14:03:11.063Z,7.47
2018-06-03T14:05:39.065Z,7.83
2018-06-03T14:08:07.126Z,7.67
2018-06-03T14:10:35.196Z,8.23
2018-06-03T14:13:03.234Z,7.33
2018-06-03T14:15:31.329Z,7.53
2018-06-03T14:17:59.430Z,7.40
2018-06-03T14:20:27.460Z,7.07
2018-06-03T14:22:55.525Z,6.33
2018-06-03T14:25:23.618Z,6.90
2018-06-03T14:27:51.608Z,6.20
2018-06-03T14:30:19.647Z,6.20
2018-06-03T14:32:47.719Z,6.73
2018-06-03T14:35:15.789Z,6.30
2018-06-03T14:37:43.821Z,7.17
2018-06-03T14:40:11.854Z,7.70
2018-06-03T14:42:39.891Z,7.47
2018-06-03T14:45:07.875Z,7.23
2018-06-03T14:47:35.862Z,6.47
2018-06-03T14:50:03.923Z,6.43
2018-06-03T14:52:31.965Z,6.93
2018-06-03T14:55:00.016Z,5.93
2018-06-03T14:57:28.105Z,6.67
2018-06-03T14:59:56.015Z,6.10
2018-06-03T15:02:24.214Z,6.43
2018-06-03T15:04:52.386Z,6.80
2018-06-03T15:07:20.454Z,6.73
2018-06-03T15:09:48.523Z,6.83
2018-06-03T15:12:16.596Z,7.03
2018-06-03T15:14:44.702Z,6.10
2018-06-03T15:17:12.711Z,6.57
2018-06-03T15:19:40.833Z,7.47
2018-06-03T15:22:08.832Z,7.40
2018-06-03T15:24:37.454Z,6.97
2018-06-03T15:27:05.527Z,7.73
2018-06-03T15:29:33.619Z,7.40
2018-06-03T15:32:01.665Z,8.00
2018-06-03T15:34:29.658Z,8.73
2018-06-03T15:36:57.761Z,9.90
2018-06-03T15:39:25.867Z,8.77
2018-06-03T15:41:53.924Z,9.00
2018-06-03T15:44:22.001Z,8.90
2018-06-03T15:46:50.041Z,9.30
2018-06-03T15:49:18.057Z,9.43
2018-06-03T15:51:46.065Z,8.30
2018-06-03T15:54:14.170Z,9.00
2018-06-03T15:56:42.296Z,9.57
2018-06-03T15:59:10.282Z,8.90
2018-06-03T16:01:38.501Z,7.73
2018-06-03T16:04:06.592Z,8.60
2018-06-03T16:06:34.681Z,7.97
2018-06-03T16:09:02.700Z,7.87
2018-06-03T16:11:30.757Z,7.60
2018-06-03T16:13:58.854Z,7.97
2018-06-03T16:16:26.872Z,7.37
2018-06-03T16:18:55.445Z,7.17
2018-06-03T16:21:23.480Z,7.17
2018-06-03T16:23:51.536Z,7.53
2018-06-03T16:26:19.499Z,8.10
2018-06-03T16:28:47.536Z,8.03
2018-06-03T16:31:15.561Z,8.50
2018-06-03T16:33:43.616Z,8.37
2018-06-03T16:36:11.693Z,8.40
2018-06-03T16:38:39.759Z,8.50
2018-06-03T16:41:07.802Z,9.63
2018-06-03T16:43:35.840Z,9.13
2018-06-03T16:46:04.023Z,9.23
2018-06-03T16:48:32.104Z,9.50
2018-06-03T16:51:00.200Z,9.43
2018-06-03T16:53:28.240Z,9.13
2018-06-03T16:55:56.228Z,10.00
2018-06-03T16:58:24.323Z,9.40
2018-06-03T17:00:52.391Z,10.67
2018-06-03T17:03:20.528Z,10.10
2018-06-03T17:05:48.675Z,10.47
2018-06-03T17:08:16.763Z,11.10
2018-06-03T17:10:44.862Z,9.60
2018-06-03T17:13:12.895Z,9.40
2018-06-03T17:15:40.899Z,9.07
2018-06-03T17:18:08.932Z,11.00
2018-06-03T17:20:37.032Z,12.47
2018-06-03T17:23:05.100Z,15.73
2018-06-03T17:25:33.191Z,13.97
2018-06-03T17:28:01.221Z,13.30
2018-06-03T17:30:29.273Z,11.37
2018-06-03T17:32:57.368Z,13.17
2018-06-03T17:35:25.404Z,13.00
2018-06-03T17:37:53.465Z,11.67
2018-06-03T17:40:21.603Z,12.37
2018-06-03T17:42:49.626Z,12.03
2018-06-03T17:45:17.698Z,13.30
2018-06-03T17:47:45.806Z,12.03
2018-06-03T17:50:13.847Z,12.30
2018-06-03T17:52:41.953Z,12.80
2018-06-03T17:55:10.066Z,12.97
2018-06-03T17:57:38.121Z,13.20
2018-06-03T18:00:06.168Z,14.03
2018-06-03T18:02:37.124Z,14.60
2018-06-03T18:05:05.190Z,15.17
2018-06-03T18:07:33.203Z,15.70
2018-06-03T18:10:01.303Z,15.73
2018-06-03T18:12:29.491Z,15.50
2018-06-03T18:14:57.594Z,14.37
2018-06-03T18:17:25.622Z,14.07
2018-06-03T18:19:53.770Z,15.30
2018-06-03T18:22:21.804Z,15.50
2018-06-03T18:24:49.860Z,14.07
2018-06-03T18:27:17.962Z,16.90
2018-06-03T18:29:46.158Z,16.60
2018-06-03T18:32:14.412Z,15.53
2018-06-03T18:34:44.220Z,15.27
2018-06-03T18:37:12.507Z,14.87
2018-06-03T18:39:40.710Z,16.03
2018-06-03T18:42:08.972Z,15.60
2018-06-03T18:44:36.998Z,15.97
2018-06-03T18:47:05.137Z,16.63
2018-06-03T18:49:33.231Z,15.10
2018-06-03T18:52:01.306Z,16.10
2018-06-03T18:54:29.466Z,15.67
2018-06-03T18:56:57.629Z,17.30
2018-06-03T18:59:25.799Z,19.07
2018-06-03T19:01:53.797Z,21.17
2018-06-03T19:04:21.928Z,19.40
2018-06-03T19:06:50.026Z,20.30
2018-06-03T19:09:18.202Z,20.73
2018-06-03T19:11:46.344Z,21.00
2018-06-03T19:14:14.463Z,20.60
2018-06-03T19:16:42.529Z,19.30
2018-06-03T19:19:10.667Z,19.20
2018-06-03T19:21:38.833Z,19.37
2018-06-03T19:24:06.833Z,19.90
2018-06-03T19:26:34.954Z,19.10
2018-06-03T19:29:03.074Z,20.33
2018-06-03T19:31:31.235Z,20.10
2018-06-03T19:33:59.253Z,19.47
2018-06-03T19:36:27.398Z,20.27
2018-06-03T19:38:55.577Z,21.30
2018-06-03T19:41:23.687Z,19.63
2018-06-03T19:43:51.790Z,19.90
2018-06-03T19:46:19.911Z,20.40
2018-06-03T19:48:47.965Z,20.47
2018-06-03T19:51:16.138Z,20.60
2018-06-03T19:53:44.312Z,22.10
2018-06-03T19:56:12.449Z,20.93
2018-06-03T19:58:40.577Z,22.00
2018-06-03T20:01:09.130Z,22.23
2018-06-03T20:03:37.208Z,21.30
2018-06-03T20:06:05.356Z,22.20
2018-06-03T20:08:33.454Z,22.97
2018-06-03T20:11:01.521Z,23.00
2018-06-03T20:13:33.476Z,22.63
2018-06-03T20:16:01.594Z,23.90
2018-06-03T20:18:30.093Z,23.77
2018-06-03T20:20:58.118Z,23.97
2018-06-03T20:23:26.187Z,23.47
2018-06-03T20:25:54.704Z,23.90
2018-06-03T20:28:22.720Z,24.50
2018-06-03T20:30:50.891Z,23.93
2018-06-03T20:33:19.054Z,25.60
2018-06-03T20:35:47.145Z,24.90
2018-06-03T20:38:15.111Z,24.20
2018-06-03T20:40:43.181Z,25.00
2018-06-03T20:43:11.362Z,24.40
2018-06-03T20:45:39.437Z,24.73
2018-06-03T20:48:07.525Z,26.60
2018-06-03T20:50:35.588Z,26.63
2018-06-03T20:53:03.612Z,27.87
2018-06-03T20:55:31.684Z,26.87
2018-06-03T20:57:59.792Z,26.00
2018-06-03T21:00:27.861Z,26.60
2018-06-03T21:02:55.966Z,26.47
2018-06-03T21:05:24.066Z,25.83
2018-06-03T21:07:52.378Z,26.60
2018-06-03T21:10:20.469Z,24.93
2018-06-03T21:12:48.606Z,25.87
2018-06-03T21:15:16.674Z,25.23
2018-06-03T21:17:44.828Z,26.40
2018-06-03T21:20:12.896Z,25.63
2018-06-03T21:22:40.985Z,25.87
2018-06-03T21:25:09.034Z,24.97
2018-06-03T21:27:37.063Z,24.80
2018-06-03T21:30:05.084Z,25.00
2018-06-03T21:32:33.136Z,24.87
2018-06-03T21:35:01.251Z,24.47
2018-06-03T21:37:29.381Z,25.33
2018-06-03T21:39:57.460Z,25.03
2018-06-03T21:42:25.560Z,24.10
2018-06-03T21:44:53.653Z,24.23
2018-06-03T21:47:21.781Z,25.03
2018-06-03T21:49:49.921Z,25.40
2018-06-03T21:52:18.017Z,24.50
2018-06-03T21:54:46.036Z,26.23
2018-06-03T21:57:14.048Z,26.30
2018-06-03T21:59:42.142Z,24.43
2018-06-03T22:02:10.267Z,24.57
2018-06-03T22:04:38.222Z,25.07
2018-06-03T22:07:06.341Z,26.33
2018-06-03T22:09:34.363Z,26.27
2018-06-03T22:12:02.415Z,26.30
2018-06-03T22:14:30.473Z,25.43
2018-06-03T22:16:58.569Z,25.90
2018-06-03T22:19:26.744Z,27.43
2018-06-03T22:21:54.822Z,25.93
2018-06-03T22:24:22.840Z,25.93
2018-06-03T22:26:50.915Z,26.67
2018-06-03T22:29:18.954Z,28.40
2018-06-03T22:31:47.020Z,27.33
2018-06-03T22:34:15.081Z,27.00
2018-06-03T22:36:43.191Z,27.10
2018-06-03T22:39:11.536Z,26.60
2018-06-03T22:41:39.579Z,28.17
2018-06-03T22:44:07.647Z,27.50
2018-06-03T22:46:35.645Z,28.37
2018-06-03T22:49:03.840Z,29.20
2018-06-03T22:51:31.840Z,28.77
2018-06-03T22:53:59.911Z,27.83
2018-06-03T22:56:32.429Z,27.90
2018-06-03T22:59:00.482Z,28.50
2018-06-03T23:01:28.526Z,29.17
2018-06-03T23:03:56.590Z,27.83
2018-06-03T23:06:24.654Z,28.03
2018-06-03T23:08:52.695Z,29.47
2018-06-03T23:11:20.706Z,26.80
2018-06-03T23:13:48.728Z,29.00
2018-06-03T23:16:16.803Z,28.93
2018-06-03T23:18:44.904Z,31.40
2018-06-03T23:21:13.025Z,31.80
2018-06-03T23:23:41.035Z,29.57
2018-06-03T23:26:09.044Z,30.30
2018-06-03T23:28:37.126Z,29.60
2018-06-03T23:31:05.153Z,31.17
2018-06-03T23:33:33.195Z,29.70
2018-06-03T23:36:01.217Z,30.50
2018-06-03T23:38:29.259Z,32.27
2018-06-03T23:40:57.368Z,32.37
2018-06-03T23:43:25.440Z,30.43
2018-06-03T23:45:53.497Z,30.87
2018-06-03T23:48:21.600Z,31.77
2018-06-03T23:50:49.709Z,30.30
2018-06-03T23:53:17.792Z,32.30
2018-06-03T23:55:45.767Z,32.00
2018-06-03T23:58:13.837Z,29.77
